Time;durP1;ratioP1;P1;durP2;ratioP2;P2;SDS_P1;SDS_P2;PMS_P1;PMS_P2;Temp;Humidity;BMP_temperature;BMP_pressure;BME280_temperature;BME280_humidity;BME280_pressure;Samples;Min_cycle;Max_cycle;Signal;HPM_P1;HPM_P2
2021/05/23 00:02:08;;;;;;;5.80;2.80;;;21.00;86.80;;;;;;5014649;28;20024;-81
2021/05/23 00:04:34;;;;;;;5.18;2.58;;;21.00;86.80;;;;;;5014539;28;20464;-80
2021/05/23 00:07:00;;;;;;;3.42;2.45;;;21.00;86.70;;;;;;4997065;28;20022;-81
2021/05/23 00:09:25;;;;;;;5.07;2.17;;;21.00;86.70;;;;;;4996906;28;20376;-81
2021/05/23 00:11:51;;;;;;;6.32;2.78;;;21.00;86.70;;;;;;5014434;28;20029;-80
2021/05/23 00:14:18;;;;;;;6.10;2.80;;;20.90;86.70;;;;;;4996939;28;20029;-81
2021/05/23 00:16:45;;;;;;;3.45;2.30;;;21.00;86.80;;;;;;5014766;28;20032;-81
2021/05/23 00:19:10;;;;;;;5.18;2.90;;;20.90;86.70;;;;;;5014316;28;20040;-83
2021/05/23 00:21:36;;;;;;;5.32;2.40;;;21.00;86.80;;;;;;4996941;28;20126;-82
2021/05/23 00:24:03;;;;;;;4.10;2.60;;;20.90;86.70;;;;;;5014729;28;20120;-80
2021/05/23 00:26:28;;;;;;;4.05;2.35;;;20.90;86.80;;;;;;5014294;28;20072;-80
2021/05/23 00:28:54;;;;;;;4.32;2.38;;;21.00;86.80;;;;;;4980602;28;20056;-79
2021/05/23 00:31:19;;;;;;;3.67;2.22;;;21.00;86.80;;;;;;4980546;28;20113;-80
2021/05/23 00:33:45;;;;;;;3.55;2.20;;;20.90;86.80;;;;;;4997394;28;20022;-80
2021/05/23 00:36:11;;;;;;;3.67;2.47;;;20.90;86.80;;;;;;4980718;28;20042;-81
2021/05/23 00:38:38;;;;;;;5.30;2.45;;;20.90;86.80;;;;;;4996718;28;20061;-81
2021/05/23 00:41:04;;;;;;;4.75;2.35;;;20.90;86.80;;;;;;5014102;28;20071;-80
2021/05/23 00:43:30;;;;;;;4.35;2.22;;;20.90;86.80;;;;;;4996372;28;20483;-81
2021/05/23 00:45:56;;;;;;;3.67;2.13;;;20.90;86.80;;;;;;5014264;28;20029;-81
2021/05/23 00:48:22;;;;;;;6.15;2.53;;;20.90;86.90;;;;;;5014274;28;20368;-81
2021/05/23 00:50:49;;;;;;;6.25;2.40;;;20.90;86.90;;;;;;4996528;28;20038;-81
2021/05/23 00:53:15;;;;;;;4.78;2.53;;;20.90;86.90;;;;;;5013813;28;20108;-81
2021/05/23 00:55:41;;;;;;;5.13;2.45;;;20.90;86.90;;;;;;4996514;28;20451;-81
2021/05/23 00:58:07;;;;;;;3.63;2.13;;;20.90;86.90;;;;;;4996474;28;20022;-81
2021/05/23 01:00:36;;;;;;;3.72;2.00;;;20.90;86.90;;;;;;5013677;28;20038;-81
2021/05/23 01:03:02;;;;;;;3.90;2.25;;;20.90;86.90;;;;;;5014177;28;20021;-80
2021/05/23 01:05:29;;;;;;;4.55;2.13;;;20.90;86.90;;;;;;4995731;28;20113;-81
2021/05/23 01:07:55;;;;;;;5.75;2.13;;;20.90;87.00;;;;;;4996592;28;20034;-81
2021/05/23 01:10:25;;;;;;;4.40;2.08;;;20.90;87.00;;;;;;4996124;28;20033;-81
2021/05/23 01:12:53;;;;;;;4.65;2.08;;;20.90;87.00;;;;;;5013885;28;20053;-81
2021/05/23 01:15:35;;;;;;;4.97;2.28;;;20.80;87.00;;;;;;4996160;28;20026;-81
2021/05/23 01:18:08;;;;;;;3.78;2.17;;;20.90;87.10;;;;;;4995812;28;20481;-81
2021/05/23 01:20:54;;;;;;;5.78;2.20;;;20.90;87.10;;;;;;5013796;28;20379;-81
2021/05/23 01:23:19;;;;;;;5.25;2.50;;;20.80;87.10;;;;;;5013503;28;20048;-81
2021/05/23 01:25:48;;;;;;;3.92;2.05;;;20.80;87.10;;;;;;4996067;28;20018;-80
2021/05/23 01:28:15;;;;;;;4.15;2.35;;;20.80;87.20;;;;;;5013833;28;20061;-81
2021/05/23 01:30:49;;;;;;;4.30;2.17;;;20.80;87.30;;;;;;5013538;28;20407;-81
2021/05/23 01:33:19;;;;;;;4.57;2.25;;;20.80;87.30;;;;;;4995878;28;20084;-80
2021/05/23 01:35:50;;;;;;;4.68;2.42;;;20.80;87.30;;;;;;4996036;28;20017;-81
2021/05/23 01:38:19;;;;;;;4.03;2.35;;;20.80;87.30;;;;;;5013306;28;20483;-84
2021/05/23 01:40:46;;;;;;;5.40;2.50;;;20.80;87.30;;;;;;5013035;28;20506;-81
2021/05/23 01:43:12;;;;;;;5.32;2.53;;;20.80;87.30;;;;;;5013332;28;20452;-81
2021/05/23 01:45:39;;;;;;;4.55;2.30;;;20.80;87.30;;;;;;4979325;28;20026;-81
2021/05/23 01:48:07;;;;;;;4.82;2.47;;;20.80;87.30;;;;;;4995709;28;20440;-81
2021/05/23 01:50:34;;;;;;;4.70;1.98;;;20.80;87.40;;;;;;5012773;28;20539;-81
2021/05/23 01:53:02;;;;;;;3.53;2.03;;;20.80;87.30;;;;;;4995723;28;20033;-81
2021/05/23 01:55:29;;;;;;;5.65;2.72;;;20.80;87.30;;;;;;4995370;28;20018;-81
2021/05/23 01:57:56;;;;;;;3.70;2.08;;;20.80;87.30;;;;;;5012935;28;20105;-80
2021/05/23 02:00:26;;;;;;;5.75;2.42;;;20.80;87.30;;;;;;5012782;28;20101;-81
2021/05/23 02:02:52;;;;;;;5.18;2.35;;;20.80;87.30;;;;;;4995685;28;20026;-81
2021/05/23 02:05:18;;;;;;;4.15;2.20;;;20.80;87.30;;;;;;5013531;28;20064;-81
2021/05/23 02:07:45;;;;;;;4.03;2.33;;;20.80;87.30;;;;;;4995307;28;20449;-80
2021/05/23 02:10:15;;;;;;;4.28;2.40;;;20.80;87.40;;;;;;4995443;28;20456;-80
2021/05/23 02:12:42;;;;;;;4.53;2.20;;;20.80;87.30;;;;;;4995310;28;20029;-81
2021/05/23 02:15:09;;;;;;;4.85;2.20;;;20.80;87.30;;;;;;5013017;28;20033;-81
2021/05/23 02:17:39;;;;;;;4.32;2.45;;;20.80;87.30;;;;;;4979060;28;20088;-81
2021/05/23 02:20:08;;;;;;;5.65;2.55;;;20.80;87.30;;;;;;4979292;28;20054;-81
2021/05/23 02:22:44;;;;;;;5.80;2.72;;;20.80;87.30;;;;;;5012464;28;20032;-80
2021/05/23 02:25:12;;;;;;;6.03;2.53;;;20.80;87.40;;;;;;4964023;28;20057;-81
2021/05/23 02:27:47;;;;;;;3.15;2.20;;;20.80;87.40;;;;;;4994967;28;20026;-81
2021/05/23 02:30:19;;;;;;;5.35;2.60;;;20.80;87.40;;;;;;5014013;28;20033;-80
2021/05/23 02:32:45;;;;;;;5.32;2.58;;;20.70;87.40;;;;;;4998567;28;20021;-81
2021/05/23 02:35:12;;;;;;;6.20;3.20;;;20.70;87.40;;;;;;4999045;28;20344;-80
2021/05/23 02:37:39;;;;;;;3.70;2.50;;;20.70;87.40;;;;;;4998793;28;20029;-81
2021/05/23 02:40:07;;;;;;;4.97;2.92;;;20.70;88.00;;;;;;5016475;28;20036;-80
2021/05/23 02:42:33;;;;;;;5.32;2.88;;;20.70;87.50;;;;;;4982106;28;20046;-81
2021/05/23 02:44:59;;;;;;;4.63;2.50;;;20.70;87.60;;;;;;4966605;28;20022;-80
2021/05/23 02:47:25;;;;;;;5.90;3.17;;;20.70;87.60;;;;;;4998474;28;20036;-82
2021/05/23 02:49:50;;;;;;;3.90;2.15;;;20.70;87.60;;;;;;4982733;28;20033;-81
2021/05/23 02:52:16;;;;;;;4.63;2.70;;;20.70;87.60;;;;;;4998734;28;20022;-81
2021/05/23 02:54:43;;;;;;;4.40;2.50;;;20.70;87.60;;;;;;4981784;28;20037;-81
2021/05/23 02:57:09;;;;;;;4.90;2.63;;;20.70;87.70;;;;;;4966741;28;20025;-80
2021/05/23 02:59:34;;;;;;;4.75;2.50;;;20.70;87.70;;;;;;4998374;28;20383;-81
2021/05/23 03:02:00;;;;;;;7.78;3.25;;;20.70;87.70;;;;;;5015984;28;20363;-80
2021/05/23 03:04:26;;;;;;;7.00;3.20;;;20.70;87.70;;;;;;5015803;28;20376;-81
2021/05/23 03:06:52;;;;;;;5.43;3.08;;;20.70;87.80;;;;;;5016042;28;20456;-81
2021/05/23 03:09:18;;;;;;;6.63;2.60;;;20.70;87.80;;;;;;5015870;28;20036;-80
2021/05/23 03:11:44;;;;;;;6.57;2.80;;;20.70;87.80;;;;;;4997924;28;20087;-80
2021/05/23 03:14:10;;;;;;;6.57;2.70;;;20.70;87.80;;;;;;4982080;28;20030;-80
2021/05/23 03:16:36;;;;;;;4.82;2.63;;;20.70;87.90;;;;;;5015277;28;20107;-81
2021/05/23 03:19:03;;;;;;;4.57;2.70;;;20.70;87.90;;;;;;4981963;28;20469;-81
2021/05/23 03:21:29;;;;;;;5.85;2.70;;;20.70;88.00;;;;;;4997849;28;20471;-82
2021/05/23 03:23:54;;;;;;;3.63;2.33;;;20.70;88.00;;;;;;5015381;28;20030;-80
2021/05/23 03:26:20;;;;;;;8.73;2.70;;;20.70;88.00;;;;;;4997943;28;20033;-80
2021/05/23 03:28:46;;;;;;;5.47;2.60;;;20.70;88.10;;;;;;4997718;28;20530;-80
2021/05/23 03:31:11;;;;;;;6.18;3.08;;;20.70;88.10;;;;;;4998098;28;20060;-80
2021/05/23 03:33:37;;;;;;;5.95;2.65;;;20.70;88.10;;;;;;4965289;28;20032;-80
2021/05/23 03:36:03;;;;;;;5.90;2.78;;;20.70;88.10;;;;;;4997800;28;20033;-80
2021/05/23 03:38:29;;;;;;;5.40;2.60;;;20.70;88.10;;;;;;5015307;28;20030;-84
2021/05/23 03:40:54;;;;;;;4.85;2.65;;;20.70;88.70;;;;;;4980755;28;20104;-81
2021/05/23 03:43:20;;;;;;;6.03;3.03;;;20.70;88.20;;;;;;4997964;28;20375;-80
2021/05/23 03:45:46;;;;;;;4.55;2.78;;;20.70;88.20;;;;;;4981250;28;20116;-80
2021/05/23 03:48:11;;;;;;;3.90;2.83;;;20.70;88.20;;;;;;5015248;28;20447;-80
2021/05/23 03:50:37;;;;;;;4.57;2.60;;;20.70;88.20;;;;;;4997370;28;20472;-81
2021/05/23 03:53:03;;;;;;;4.18;2.50;;;20.70;88.30;;;;;;4965265;28;20026;-80
2021/05/23 03:55:29;;;;;;;4.80;2.83;;;20.70;88.30;;;;;;4997460;28;20026;-80
2021/05/23 03:57:56;;;;;;;6.20;2.72;;;20.70;88.30;;;;;;5014760;28;20022;-79
2021/05/23 04:00:23;;;;;;;4.80;2.60;;;20.70;88.40;;;;;;4997429;28;20369;-80
2021/05/23 04:02:53;;;;;;;4.15;2.70;;;20.70;88.40;;;;;;4998726;28;20124;-80
2021/05/23 04:05:20;;;;;;;3.60;2.55;;;20.60;88.40;;;;;;4997458;28;20026;-80
2021/05/23 04:07:46;;;;;;;4.43;2.80;;;20.70;88.50;;;;;;4996735;28;20465;-80
2021/05/23 04:10:15;;;;;;;5.68;2.92;;;20.70;88.50;;;;;;5014893;28;20464;-81
2021/05/23 04:12:44;;;;;;;3.35;2.42;;;20.70;88.50;;;;;;4997467;28;20029;-81
2021/05/23 04:15:12;;;;;;;4.82;2.50;;;20.60;88.50;;;;;;4997678;28;20105;-81
2021/05/23 04:17:38;;;;;;;5.45;2.90;;;20.60;88.60;;;;;;4980741;28;20400;-81
2021/05/23 04:20:06;;;;;;;5.82;2.65;;;20.70;88.60;;;;;;4996860;28;20038;-80
2021/05/23 04:22:32;;;;;;;3.95;2.92;;;20.70;88.70;;;;;;4996790;28;20022;-81
2021/05/23 04:24:57;;;;;;;6.32;2.95;;;20.70;89.20;;;;;;5014321;28;20109;-81
2021/05/23 04:27:23;;;;;;;5.78;3.28;;;20.60;88.70;;;;;;5014688;28;20037;-81
2021/05/23 04:29:49;;;;;;;5.13;2.75;;;20.60;88.70;;;;;;4980393;28;20080;-81
2021/05/23 04:32:15;;;;;;;4.38;3.22;;;20.60;88.80;;;;;;5014490;28;20073;-81
2021/05/23 04:34:40;;;;;;;7.13;2.97;;;20.60;88.80;;;;;;4996619;28;20368;-81
2021/05/23 04:37:06;;;;;;;7.15;3.92;;;20.60;88.90;;;;;;4997038;28;20459;-81
2021/05/23 04:39:33;;;;;;;5.88;4.10;;;20.60;88.90;;;;;;4996617;28;20467;-81
2021/05/23 04:41:59;;;;;;;6.90;3.50;;;20.60;89.00;;;;;;5013716;28;20133;-81
2021/05/23 04:44:24;;;;;;;7.70;4.22;;;20.60;89.00;;;;;;4996571;28;20057;-80
2021/05/23 04:46:50;;;;;;;5.72;3.95;;;20.60;89.10;;;;;;4980138;28;20084;-81
2021/05/23 04:49:16;;;;;;;5.07;4.18;;;20.60;89.10;;;;;;4996718;28;20522;-81
2021/05/23 04:51:42;;;;;;;6.88;3.88;;;20.60;89.20;;;;;;4996251;28;20495;-81
2021/05/23 04:54:08;;;;;;;8.18;4.38;;;20.60;89.20;;;;;;4963669;28;20060;-80
2021/05/23 04:56:33;;;;;;;6.28;4.45;;;20.60;89.20;;;;;;4980269;28;20108;-81
2021/05/23 04:58:59;;;;;;;5.65;4.60;;;20.60;89.30;;;;;;5013771;28;20034;-81
2021/05/23 05:01:25;;;;;;;7.80;5.20;;;20.60;89.40;;;;;;4996362;28;20460;-80
2021/05/23 05:03:50;;;;;;;7.00;4.72;;;20.70;89.50;;;;;;4996215;28;20029;-81
2021/05/23 05:06:16;;;;;;;6.03;5.20;;;20.70;89.60;;;;;;5013981;28;20025;-81
2021/05/23 05:08:41;;;;;;;7.63;5.20;;;20.60;89.60;;;;;;5013987;28;20026;-81
2021/05/23 05:11:07;;;;;;;5.82;4.75;;;20.70;89.70;;;;;;4964295;28;20025;-80
2021/05/23 05:13:33;;;;;;;8.80;5.70;;;20.60;89.70;;;;;;4980236;28;20038;-81
2021/05/23 05:15:58;;;;;;;6.40;5.00;;;20.70;89.80;;;;;;5013776;28;20372;-81
2021/05/23 05:18:24;;;;;;;7.40;5.68;;;20.70;89.80;;;;;;5013912;28;20058;-81
2021/05/23 05:20:50;;;;;;;6.32;5.10;;;20.70;89.90;;;;;;4980167;28;20045;-81
2021/05/23 05:23:15;;;;;;;6.60;5.50;;;20.60;89.90;;;;;;5014134;28;20503;-81
2021/05/23 05:25:41;;;;;;;5.90;4.95;;;20.60;90.20;;;;;;4996147;28;20461;-82
2021/05/23 05:28:06;;;;;;;6.38;5.00;;;20.60;90.00;;;;;;4996441;28;20030;-81
2021/05/23 05:30:32;;;;;;;5.85;5.18;;;20.70;90.20;;;;;;5014085;28;20364;-81
2021/05/23 05:32:58;;;;;;;5.47;4.32;;;20.70;90.00;;;;;;4995895;28;20045;-81
2021/05/23 05:35:23;;;;;;;5.30;4.25;;;20.70;89.90;;;;;;4979952;28;20371;-80
2021/05/23 05:37:49;;;;;;;5.60;4.45;;;20.70;89.90;;;;;;4995578;28;20168;-81
2021/05/23 05:40:15;;;;;;;6.32;4.47;;;20.70;89.80;;;;;;5013333;28;20034;-80
2021/05/23 05:42:41;;;;;;;5.75;4.80;;;20.70;89.80;;;;;;4995818;28;20435;-81
2021/05/23 05:45:07;;;;;;;6.10;4.40;;;20.70;89.80;;;;;;4995752;28;20025;-81
2021/05/23 05:47:33;;;;;;;4.38;3.92;;;20.80;89.80;;;;;;4995346;28;20117;-81
2021/05/23 05:49:59;;;;;;;6.03;4.25;;;20.80;89.80;;;;;;4978928;28;20129;-81
2021/05/23 05:52:25;;;;;;;5.70;4.32;;;20.80;89.70;;;;;;4995826;28;20094;-80
2021/05/23 05:54:50;;;;;;;4.55;4.10;;;20.80;89.70;;;;;;5013020;28;20030;-81
2021/05/23 05:57:16;;;;;;;4.82;4.00;;;20.80;89.70;;;;;;5011773;28;20030;-81
2021/05/23 05:59:42;;;;;;;4.93;4.03;;;20.80;90.10;;;;;;4979277;28;20391;-80
2021/05/23 06:02:07;;;;;;;4.90;3.80;;;20.80;89.70;;;;;;4979250;28;20022;-81
2021/05/23 06:04:33;;;;;;;5.07;4.20;;;20.80;89.70;;;;;;4997187;28;20034;-81
2021/05/23 06:06:59;;;;;;;5.25;3.67;;;20.80;89.70;;;;;;4983055;28;20033;-81
2021/05/23 06:09:24;;;;;;;5.45;4.18;;;20.90;89.80;;;;;;4999560;28;20030;-81
2021/05/23 06:11:50;;;;;;;4.30;3.90;;;20.90;89.80;;;;;;5016751;28;20096;-81
2021/05/23 06:14:16;;;;;;;4.25;3.65;;;20.90;89.80;;;;;;4999490;28;20451;-81
2021/05/23 06:16:41;;;;;;;4.75;3.95;;;20.90;89.80;;;;;;4999141;28;20018;-81
2021/05/23 06:19:07;;;;;;;4.60;3.83;;;20.90;89.80;;;;;;4998991;28;20037;-82
2021/05/23 06:21:33;;;;;;;5.45;4.05;;;20.90;90.00;;;;;;5016494;28;20426;-81
2021/05/23 06:23:58;;;;;;;5.13;4.32;;;20.90;90.00;;;;;;4982433;28;20030;-81
2021/05/23 06:26:26;;;;;;;5.15;4.13;;;20.90;90.10;;;;;;4999270;28;20022;-81
2021/05/23 06:28:53;;;;;;;4.75;4.10;;;20.90;90.10;;;;;;5016166;28;20384;-82
2021/05/23 06:31:20;;;;;;;4.18;3.78;;;20.90;90.10;;;;;;4999475;28;20029;-82
2021/05/23 06:33:45;;;;;;;4.65;3.58;;;21.00;90.10;;;;;;4998979;28;20029;-81
2021/05/23 06:36:12;;;;;;;3.55;3.22;;;21.00;90.10;;;;;;4982589;28;20026;-82
2021/05/23 06:38:37;;;;;;;4.30;3.05;;;21.00;90.10;;;;;;4982616;28;20045;-81
2021/05/23 06:41:03;;;;;;;3.25;2.80;;;21.00;90.10;;;;;;5015940;28;20455;-81
2021/05/23 06:43:29;;;;;;;3.72;2.58;;;21.00;90.10;;;;;;5016167;28;20018;-82
2021/05/23 06:45:55;;;;;;;2.47;2.28;;;21.00;90.10;;;;;;4998439;28;20022;-82
2021/05/23 06:48:21;;;;;;;2.58;2.35;;;21.10;90.10;;;;;;4998486;28;20029;-82
2021/05/23 06:50:48;;;;;;;2.22;2.00;;;21.00;90.10;;;;;;5016276;28;20076;-82
2021/05/23 06:53:13;;;;;;;2.13;1.83;;;21.10;90.10;;;;;;4998436;28;20029;-82
2021/05/23 06:55:40;;;;;;;2.50;1.95;;;21.10;90.10;;;;;;4982481;28;20384;-82
2021/05/23 06:58:06;;;;;;;3.25;2.28;;;21.10;90.10;;;;;;5015984;28;20069;-82
2021/05/23 07:00:32;;;;;;;2.78;1.88;;;21.10;90.10;;;;;;4998259;28;20042;-82
2021/05/23 07:02:57;;;;;;;2.08;1.88;;;21.10;90.10;;;;;;4998305;28;20026;-83
2021/05/23 07:05:23;;;;;;;2.40;1.95;;;21.10;90.00;;;;;;4982318;28;20426;-82
2021/05/23 07:07:49;;;;;;;2.47;1.73;;;21.20;90.10;;;;;;5016102;28;20125;-83
2021/05/23 07:10:15;;;;;;;2.25;2.00;;;21.20;90.10;;;;;;4981876;28;20029;-82
2021/05/23 07:12:41;;;;;;;1.88;1.70;;;21.20;90.10;;;;;;5015889;28;20026;-81
2021/05/23 07:15:08;;;;;;;2.70;1.90;;;21.20;90.00;;;;;;4981600;28;20478;-82
2021/05/23 07:17:34;;;;;;;2.30;1.92;;;21.20;90.10;;;;;;4997781;28;20084;-82
2021/05/23 07:20:00;;;;;;;3.60;2.35;;;21.20;90.10;;;;;;4982021;28;20459;-82
2021/05/23 07:22:26;;;;;;;3.00;2.22;;;21.20;90.00;;;;;;4965879;28;20092;-81
2021/05/23 07:24:51;;;;;;;3.25;2.55;;;21.30;90.00;;;;;;4998015;28;20026;-81
2021/05/23 07:27:17;;;;;;;2.85;2.35;;;21.30;90.00;;;;;;5015437;28;20022;-83
2021/05/23 07:29:43;;;;;;;3.45;3.13;;;21.30;90.00;;;;;;4998190;28;20462;-84
2021/05/23 07:32:09;;;;;;;4.45;2.95;;;21.30;90.00;;;;;;4997561;28;20029;-82
2021/05/23 07:34:34;;;;;;;3.40;3.08;;;21.30;90.10;;;;;;4998048;28;20033;-82
2021/05/23 07:37:00;;;;;;;3.88;2.92;;;21.30;90.00;;;;;;4997597;28;20160;-82
2021/05/23 07:39:26;;;;;;;4.53;3.72;;;21.30;90.10;;;;;;4981426;28;20030;-82
2021/05/23 07:41:51;;;;;;;5.90;4.10;;;21.30;90.00;;;;;;4977908;28;20058;-82
2021/05/23 07:44:18;;;;;;;5.30;4.00;;;21.30;90.30;;;;;;4994575;28;20035;-81
2021/05/23 07:46:44;;;;;;;4.90;4.10;;;21.30;90.00;;;;;;4978059;28;20097;-82
2021/05/23 07:49:10;;;;;;;6.07;4.43;;;21.30;90.00;;;;;;4994094;28;20460;-81
2021/05/23 07:51:36;;;;;;;5.07;4.07;;;21.40;90.00;;;;;;4962095;28;20033;-82
2021/05/23 07:54:02;;;;;;;5.78;4.43;;;21.40;90.00;;;;;;4995553;28;20049;-82
2021/05/23 07:56:28;;;;;;;5.78;4.22;;;21.40;90.00;;;;;;4978082;28;20069;-82
2021/05/23 07:58:54;;;;;;;6.20;4.72;;;21.40;90.00;;;;;;4995590;28;20061;-83
2021/05/23 08:01:20;;;;;;;7.75;6.07;;;21.40;90.00;;;;;;4993913;28;20446;-81
2021/05/23 08:03:45;;;;;;;6.80;5.22;;;21.40;90.10;;;;;;4993836;28;20022;-82
2021/05/23 08:06:12;;;;;;;8.20;5.80;;;21.40;90.10;;;;;;4977512;28;20041;-82
2021/05/23 08:08:38;;;;;;;5.70;4.85;;;21.40;90.10;;;;;;4994193;28;20030;-82
2021/05/23 08:11:04;;;;;;;8.30;6.30;;;21.40;90.10;;;;;;4993916;28;20027;-82
2021/05/23 08:13:30;;;;;;;7.25;5.55;;;21.40;90.10;;;;;;4977715;28;20037;-82
2021/05/23 08:15:57;;;;;;;7.53;5.75;;;21.50;90.10;;;;;;4977751;28;20030;-82
2021/05/23 08:18:28;;;;;;;7.75;5.88;;;21.40;90.10;;;;;;4961667;28;20029;-83
2021/05/23 08:21:02;;;;;;;7.75;6.00;;;21.50;90.20;;;;;;4978500;28;20038;-81
2021/05/23 08:23:29;;;;;;;8.10;6.50;;;21.50;90.40;;;;;;4993712;28;20054;-81
2021/05/23 08:25:56;;;;;;;8.07;6.22;;;21.50;90.10;;;;;;4977842;28;20088;-81
2021/05/23 08:28:22;;;;;;;8.93;7.07;;;21.50;90.10;;;;;;4993371;28;20156;-81
2021/05/23 08:30:48;;;;;;;8.88;6.57;;;21.50;90.10;;;;;;4977547;28;20079;-81
2021/05/23 08:33:14;;;;;;;8.85;6.85;;;21.50;90.10;;;;;;4994655;28;20026;-82
2021/05/23 08:35:41;;;;;;;7.95;6.43;;;21.50;90.10;;;;;;4993625;28;20117;-81
2021/05/23 08:38:07;;;;;;;8.73;6.45;;;21.50;90.10;;;;;;4994543;28;20479;-82
2021/05/23 08:40:34;;;;;;;9.00;6.55;;;21.50;90.10;;;;;;4994626;28;20043;-81
2021/05/23 08:43:02;;;;;;;7.38;6.07;;;21.50;90.10;;;;;;4993005;28;20138;-81
2021/05/23 08:45:28;;;;;;;7.18;5.88;;;21.50;90.10;;;;;;4994313;28;20045;-81
2021/05/23 08:47:54;;;;;;;7.05;5.90;;;21.50;90.20;;;;;;4993598;28;20030;-81
2021/05/23 08:50:21;;;;;;;8.10;6.28;;;21.50;90.20;;;;;;4993175;28;20520;-81
2021/05/23 08:52:56;;;;;;;7.15;6.43;;;21.50;90.20;;;;;;4993260;28;20070;-81
2021/05/23 08:55:22;;;;;;;8.50;6.22;;;21.60;90.20;;;;;;4993926;28;20023;-81
2021/05/23 08:57:51;;;;;;;8.75;6.53;;;21.60;90.20;;;;;;4994323;28;20027;-81
2021/05/23 09:00:18;;;;;;;8.80;6.95;;;21.60;90.30;;;;;;4992941;28;20081;-81
2021/05/23 09:02:58;;;;;;;10.32;6.95;;;21.60;90.20;;;;;;4977035;28;20492;-81
2021/05/23 09:05:29;;;;;;;9.32;6.97;;;21.60;90.20;;;;;;4992813;28;20030;-81
2021/05/23 09:07:55;;;;;;;10.38;7.20;;;21.60;90.30;;;;;;4994429;28;20026;-81
2021/05/23 09:10:26;;;;;;;11.05;7.53;;;21.60;90.30;;;;;;4976801;28;20033;-81
2021/05/23 09:12:51;;;;;;;11.23;7.72;;;21.60;90.30;;;;;;4992968;28;20045;-81
2021/05/23 09:15:17;;;;;;;11.95;7.93;;;21.60;90.30;;;;;;4992673;28;20460;-82
2021/05/23 09:17:43;;;;;;;11.45;7.88;;;21.60;90.30;;;;;;4976539;28;20031;-81
2021/05/23 09:20:18;;;;;;;10.50;7.75;;;21.60;90.30;;;;;;4992123;28;20045;-82
2021/05/23 09:22:51;;;;;;;13.32;8.68;;;21.70;90.30;;;;;;4993294;28;20049;-81
2021/05/23 09:25:27;;;;;;;13.02;8.85;;;21.60;90.30;;;;;;4972830;28;20084;-85
2021/05/23 09:27:53;;;;;;;12.27;8.38;;;21.70;90.30;;;;;;4991222;28;20022;-83
2021/05/23 09:30:22;;;;;;;14.00;9.55;;;21.60;90.30;;;;;;4996955;28;20030;-81
2021/05/23 09:32:50;;;;;;;14.05;9.45;;;21.70;90.20;;;;;;4991186;28;20050;-82
2021/05/23 09:35:16;;;;;;;14.15;9.60;;;21.60;90.20;;;;;;4989730;28;20066;-82
2021/05/23 09:37:43;;;;;;;15.23;9.88;;;21.70;90.20;;;;;;4988514;28;20033;-83
2021/05/23 09:40:21;;;;;;;14.65;9.80;;;21.70;90.20;;;;;;4990127;28;20103;-82
2021/05/23 09:42:48;;;;;;;15.23;10.25;;;21.70;90.20;;;;;;5003151;28;20060;-81
2021/05/23 09:45:15;;;;;;;15.52;10.45;;;21.70;90.20;;;;;;5008026;28;20100;-82
2021/05/23 09:47:55;;;;;;;16.15;10.77;;;21.60;90.20;;;;;;4975956;28;20337;-83
2021/05/23 09:50:52;;;;;;;17.13;11.32;;;21.70;90.20;;;;;;4990987;28;20069;-83
2021/05/23 09:53:21;;;;;;;18.60;11.65;;;21.70;90.20;;;;;;4997497;28;20045;-82
2021/05/23 09:56:00;;;;;;;15.60;10.52;;;21.60;90.20;;;;;;5005466;28;20407;-83
2021/05/23 09:58:31;;;;;;;16.15;11.20;;;21.70;90.20;;;;;;5005999;28;20033;-82
2021/05/23 10:00:58;;;;;;;15.30;10.85;;;21.70;90.20;;;;;;5006834;28;20490;-82
2021/05/23 10:03:35;;;;;;;17.73;12.07;;;21.70;90.20;;;;;;4986459;28;20066;-83
2021/05/23 10:06:02;;;;;;;15.25;11.40;;;21.70;90.20;;;;;;4986615;28;20027;-83
2021/05/23 10:08:28;;;;;;;14.30;10.93;;;21.70;90.20;;;;;;4987809;28;20033;-83
2021/05/23 10:10:55;;;;;;;18.15;12.45;;;21.70;90.20;;;;;;5005199;28;20041;-83
2021/05/23 10:13:24;;;;;;;18.05;12.05;;;21.70;90.10;;;;;;5008431;28;20480;-83
2021/05/23 10:15:50;;;;;;;17.88;11.93;;;21.70;90.10;;;;;;5008597;28;20502;-85
2021/05/23 10:18:19;;;;;;;16.55;12.27;;;21.70;90.10;;;;;;4990814;28;20022;-82
2021/05/23 10:20:45;;;;;;;17.40;12.45;;;21.70;90.10;;;;;;5006539;28;20080;-83
2021/05/23 10:23:21;;;;;;;18.10;13.05;;;21.70;90.10;;;;;;4974983;28;20458;-82
2021/05/23 10:25:50;;;;;;;17.05;12.15;;;21.70;90.10;;;;;;5007163;28;20037;-82
2021/05/23 10:28:17;;;;;;;18.13;12.40;;;21.60;90.10;;;;;;5007366;28;20022;-86
2021/05/23 10:30:55;;;;;;;19.77;12.88;;;21.70;90.10;;;;;;4989633;28;20128;-84
2021/05/23 10:33:22;;;;;;;17.30;12.52;;;21.70;90.10;;;;;;4993306;28;20471;-82
2021/05/23 10:35:52;;;;;;;17.85;12.48;;;21.70;90.10;;;;;;4989874;28;20042;-83
2021/05/23 10:38:22;;;;;;;18.17;11.93;;;21.70;90.00;;;;;;4989373;28;20042;-83
2021/05/23 10:40:59;;;;;;;15.25;11.15;;;21.70;90.00;;;;;;5007936;28;20111;-82
2021/05/23 10:43:26;;;;;;;16.65;10.85;;;21.70;90.00;;;;;;4986941;28;20050;-83
2021/05/23 10:46:10;;;;;;;12.30;9.63;;;21.70;90.00;;;;;;4990162;28;20042;-83
2021/05/23 10:48:37;;;;;;;12.73;9.43;;;21.70;90.00;;;;;;4988442;28;20185;-83
2021/05/23 10:51:17;;;;;;;11.20;8.52;;;21.70;90.00;;;;;;4988320;28;20104;-82
2021/05/23 10:53:43;;;;;;;10.20;7.47;;;21.70;90.00;;;;;;4991985;28;20023;-82
2021/05/23 10:56:30;;;;;;;10.48;7.65;;;21.70;90.00;;;;;;4992240;28;20019;-82
2021/05/23 10:59:00;;;;;;;9.65;6.90;;;21.70;90.00;;;;;;4993557;28;20035;-83
2021/05/23 11:01:43;;;;;;;8.45;6.28;;;21.70;90.00;;;;;;4992180;28;20037;-82
2021/05/23 11:04:17;;;;;;;7.85;6.35;;;21.70;90.20;;;;;;4992677;28;20030;-82
2021/05/23 11:06:45;;;;;;;7.82;5.78;;;21.70;90.00;;;;;;4991482;28;20054;-82
2021/05/23 11:09:13;;;;;;;6.93;5.05;;;21.70;90.00;;;;;;4990531;28;20038;-83
2021/05/23 11:11:40;;;;;;;7.05;5.22;;;21.70;90.00;;;;;;4991747;28;20026;-83
2021/05/23 11:14:23;;;;;;;7.05;4.95;;;21.70;90.00;;;;;;4990648;28;20448;-83
2021/05/23 11:16:56;;;;;;;5.63;4.55;;;21.70;89.90;;;;;;4992879;28;20054;-83
2021/05/23 11:19:24;;;;;;;5.85;4.32;;;21.70;89.90;;;;;;4990766;28;20089;-82
2021/05/23 11:21:51;;;;;;;4.93;3.80;;;21.70;89.90;;;;;;4990826;28;20380;-83
2021/05/23 11:24:18;;;;;;;5.15;4.20;;;21.70;89.80;;;;;;4989710;28;20038;-82
2021/05/23 11:26:44;;;;;;;5.82;3.85;;;21.70;89.80;;;;;;4991558;28;20110;-82
2021/05/23 11:29:09;;;;;;;5.07;4.00;;;21.70;89.80;;;;;;4989899;28;20034;-82
2021/05/23 11:31:44;;;;;;;4.55;3.60;;;21.70;89.80;;;;;;4989249;28;20390;-82
2021/05/23 11:34:09;;;;;;;5.00;3.45;;;21.80;89.80;;;;;;4992996;28;20026;-82
2021/05/23 11:36:39;;;;;;;4.35;3.50;;;21.70;89.70;;;;;;4990914;28;20046;-82
2021/05/23 11:39:14;;;;;;;4.65;3.42;;;21.80;89.70;;;;;;4996175;28;20030;-81
2021/05/23 11:41:46;;;;;;;;;;;21.80;89.70;;;;;;5000272;28;20411;-80
2021/05/23 11:44:14;;;;;;;4.25;3.33;;;21.80;89.60;;;;;;4997920;28;20066;-82
2021/05/23 11:46:42;;;;;;;4.22;3.47;;;21.70;89.70;;;;;;4997592;28;20502;-82
2021/05/23 11:49:16;;;;;;;5.13;3.88;;;21.80;89.70;;;;;;4997678;28;20088;-82
2021/05/23 11:51:41;;;;;;;4.55;3.72;;;21.80;89.70;;;;;;5014896;28;20056;-82
2021/05/23 11:54:07;;;;;;;6.10;4.43;;;21.80;89.60;;;;;;4997444;28;20057;-82
2021/05/23 11:56:34;;;;;;;5.85;4.15;;;21.80;89.60;;;;;;4980941;28;20460;-82
2021/05/23 11:59:03;;;;;;;6.85;4.90;;;21.80;89.60;;;;;;4997213;28;20029;-82
2021/05/23 12:01:31;;;;;;;7.50;5.15;;;21.80;89.50;;;;;;4980907;28;20056;-83
2021/05/23 12:04:02;;;;;;;8.75;5.15;;;21.80;89.50;;;;;;4981368;28;20026;-82
2021/05/23 12:06:29;;;;;;;9.02;6.03;;;21.80;89.30;;;;;;5014613;28;20020;-82
2021/05/23 12:09:28;;;;;;;8.98;5.75;;;21.80;89.30;;;;;;4997373;28;20069;-82
2021/05/23 12:12:03;;;;;;;9.15;6.18;;;21.80;89.10;;;;;;4971636;28;20041;-82
2021/05/23 12:14:29;;;;;;;8.18;6.00;;;21.80;89.10;;;;;;4997069;28;20022;-81
2021/05/23 12:17:16;;;;;;;8.80;6.15;;;21.80;89.00;;;;;;5014629;28;20052;-81
2021/05/23 12:19:53;;;;;;;10.85;6.75;;;21.80;89.00;;;;;;4996677;28;20037;-81
2021/05/23 12:22:20;;;;;;;10.25;6.97;;;21.90;89.10;;;;;;4982022;28;20107;-81
2021/05/23 12:24:57;;;;;;;10.60;6.68;;;21.80;89.00;;;;;;4996659;28;20018;-81
2021/05/23 12:27:33;;;;;;;11.27;7.90;;;21.90;89.00;;;;;;4980769;28;20522;-81
2021/05/23 12:30:09;;;;;;;11.68;7.68;;;21.90;88.90;;;;;;4997108;28;20080;-81
2021/05/23 12:32:46;;;;;;;11.90;7.85;;;21.90;88.90;;;;;;4996339;28;20109;-82
2021/05/23 12:35:19;;;;;;;10.63;7.68;;;21.90;88.90;;;;;;4996510;28;20026;-81
2021/05/23 12:37:50;;;;;;;10.70;8.10;;;21.90;88.80;;;;;;4996342;28;20025;-82
2021/05/23 12:40:31;;;;;;;12.43;8.82;;;21.90;88.80;;;;;;4996380;28;20026;-82
2021/05/23 12:43:15;;;;;;;10.20;7.82;;;21.90;88.70;;;;;;4994276;28;20089;-82
2021/05/23 12:45:44;;;;;;;11.13;8.15;;;21.90;88.60;;;;;;4994421;28;20053;-83
2021/05/23 12:48:11;;;;;;;11.10;8.93;;;21.90;88.60;;;;;;4977454;28;20038;-82
2021/05/23 12:50:57;;;;;;;12.43;9.10;;;21.90;88.60;;;;;;4960900;28;20125;-82